Time;durP1;ratioP1;P1;durP2;ratioP2;P2;SDS_P1;SDS_P2;PMS_P1;PMS_P2;Temp;Humidity;BMP_temperature;BMP_pressure;BME280_temperature;BME280_humidity;BME280_pressure;Samples;Min_cycle;Max_cycle;Signal;HPM_P1;HPM_P2
2022/05/30 00:00:13;;;;;;;1.17;0.60;;;;;;;;;;5014736;28;20105;-47
2022/05/30 00:02:39;;;;;;;1.05;0.73;;;;;;;;;;5014112;28;20361;-49
2022/05/30 00:05:05;;;;;;;1.95;0.90;;;;;;;;;;5014214;28;20050;-48
2022/05/30 00:07:31;;;;;;;0.57;0.40;;;;;;;;;;5014046;28;20037;-48
2022/05/30 00:09:57;;;;;;;2.15;0.77;;;;;;;;;;5014026;28;20030;-47
2022/05/30 00:12:23;;;;;;;0.90;0.75;;;;;;;;;;5014205;28;20026;-47
2022/05/30 00:14:49;;;;;;;0.80;0.52;;;;;;;;;;5013730;28;20829;-47
2022/05/30 00:17:15;;;;;;;1.70;0.80;;;;;;;;;;5014088;28;20030;-47
2022/05/30 00:19:41;;;;;;;0.95;0.50;;;;;;;;;;5013280;28;20497;-46
2022/05/30 00:22:11;;;;;;;1.05;0.70;;;;;;;;;;5014098;28;20109;-47
2022/05/30 00:24:37;;;;;;;1.73;0.65;;;;;;;;;;5013330;28;20049;-46
2022/05/30 00:27:04;;;;;;;0.70;0.60;;;;;;;;;;5014047;28;20022;-46
2022/05/30 00:29:30;;;;;;;1.80;0.85;;;;;;;;;;5007936;28;20101;-47
2022/05/30 00:31:56;;;;;;;1.17;0.60;;;;;;;;;;4993611;28;20037;-46
2022/05/30 00:34:23;;;;;;;0.85;0.55;;;;;;;;;;4994302;28;20037;-46
2022/05/30 00:36:49;;;;;;;0.85;0.50;;;;;;;;;;4993096;28;20041;-47
2022/05/30 00:39:15;;;;;;;2.28;0.95;;;;;;;;;;4994295;28;20041;-46
2022/05/30 00:41:41;;;;;;;1.85;0.80;;;;;;;;;;4993192;28;20030;-47
2022/05/30 00:44:07;;;;;;;1.30;0.75;;;;;;;;;;5011313;28;20494;-47
2022/05/30 00:46:33;;;;;;;0.80;0.70;;;;;;;;;;5012609;28;20054;-47
2022/05/30 00:49:05;;;;;;;1.52;0.68;;;;;;;;;;5013590;28;20021;-46
2022/05/30 00:51:38;;;;;;;1.35;0.73;;;;;;;;;;5013432;28;20026;-47
2022/05/30 00:54:07;;;;;;;2.13;1.00;;;;;;;;;;5013499;28;20026;-46
2022/05/30 00:56:35;;;;;;;2.20;0.60;;;;;;;;;;5012806;28;20049;-47
2022/05/30 00:59:01;;;;;;;1.15;0.73;;;;;;;;;;5013009;28;20121;-46
2022/05/30 01:01:28;;;;;;;1.20;0.77;;;;;;;;;;5013352;28;20029;-47
2022/05/30 01:06:41;;;;;;;1.13;0.70;;;;;;;;;;5012489;28;20087;-47
2022/05/30 01:09:15;;;;;;;1.13;0.63;;;;;;;;;;5013211;28;20496;-46
2022/05/30 01:11:48;;;;;;;0.60;0.45;;;;;;;;;;5012214;28;20037;-46
2022/05/30 01:14:14;;;;;;;0.85;0.63;;;;;;;;;;5013043;28;20033;-46
2022/05/30 01:16:40;;;;;;;1.38;0.77;;;;;;;;;;5012166;28;20865;-46
2022/05/30 01:19:09;;;;;;;0.90;0.73;;;;;;;;;;5012899;28;20037;-47
2022/05/30 01:21:40;;;;;;;0.82;0.52;;;;;;;;;;5012593;28;20026;-47
2022/05/30 01:24:14;;;;;;;1.60;0.70;;;;;;;;;;5012764;28;20033;-46
2022/05/30 01:26:47;;;;;;;1.00;0.80;;;;;;;;;;5012325;28;20069;-46
2022/05/30 01:29:35;;;;;;;1.58;0.70;;;;;;;;;;4995347;28;20485;-48
2022/05/30 01:32:01;;;;;;;1.20;0.73;;;;;;;;;;5012657;28;20033;-46
2022/05/30 01:34:28;;;;;;;1.27;0.80;;;;;;;;;;5012672;28;20022;-46
2022/05/30 01:36:54;;;;;;;1.13;0.70;;;;;;;;;;5007662;28;20692;-47
2022/05/30 01:39:20;;;;;;;1.05;0.73;;;;;;;;;;4993053;28;20062;-47
2022/05/30 01:41:46;;;;;;;0.82;0.60;;;;;;;;;;4992467;28;20031;-46
2022/05/30 01:44:14;;;;;;;1.02;0.80;;;;;;;;;;5008287;28;20037;-47
2022/05/30 01:46:40;;;;;;;1.52;1.13;;;;;;;;;;5011791;28;20056;-49
2022/05/30 01:49:06;;;;;;;0.65;0.50;;;;;;;;;;5012254;28;20036;-47
2022/05/30 01:51:32;;;;;;;1.42;0.95;;;;;;;;;;5012393;28;20025;-46
2022/05/30 01:53:58;;;;;;;1.35;0.82;;;;;;;;;;5011846;28;20033;-46
2022/05/30 01:56:25;;;;;;;1.67;0.85;;;;;;;;;;5012608;28;20036;-47
2022/05/30 01:58:51;;;;;;;1.00;0.80;;;;;;;;;;5010686;28;20446;-47
2022/05/30 02:01:26;;;;;;;1.35;0.60;;;;;;;;;;5011801;28;20029;-52
2022/05/30 02:03:53;;;;;;;2.42;1.15;;;;;;;;;;5011206;28;20018;-48
2022/05/30 02:06:23;;;;;;;0.73;0.55;;;;;;;;;;5012406;28;20064;-47
2022/05/30 02:08:49;;;;;;;1.35;0.80;;;;;;;;;;5011493;28;20022;-47
2022/05/30 02:11:16;;;;;;;1.67;0.60;;;;;;;;;;5011764;28;20036;-48
2022/05/30 02:13:42;;;;;;;0.77;0.60;;;;;;;;;;5011076;28;20414;-49
2022/05/30 02:18:56;;;;;;;1.25;0.93;;;;;;;;;;5011524;28;20410;-47
2022/05/30 02:21:21;;;;;;;1.10;0.60;;;;;;;;;;5012003;28;20029;-48
2022/05/30 02:23:47;;;;;;;2.33;0.60;;;;;;;;;;5011326;28;20377;-47
2022/05/30 02:26:13;;;;;;;1.25;0.80;;;;;;;;;;5012388;28;20072;-47
2022/05/30 02:28:39;;;;;;;1.05;0.80;;;;;;;;;;5011344;28;20469;-48
2022/05/30 02:31:05;;;;;;;1.10;0.70;;;;;;;;;;5011352;28;20022;-47
2022/05/30 02:36:39;;;;;;;1.10;0.93;;;;;;;;;;4950582;29;20035;-47
2022/05/30 02:39:05;;;;;;;1.75;0.73;;;;;;;;;;4947605;29;20042;-47
2022/05/30 02:41:31;;;;;;;1.42;0.80;;;;;;;;;;4968426;28;20497;-46
2022/05/30 02:43:57;;;;;;;0.93;0.60;;;;;;;;;;5009748;28;20365;-46
2022/05/30 02:46:24;;;;;;;1.63;1.20;;;;;;;;;;5010367;28;20050;-46
2022/05/30 02:48:50;;;;;;;2.47;0.60;;;;;;;;;;5009685;28;20459;-47
2022/05/30 02:51:16;;;;;;;0.77;0.77;;;;;;;;;;5010986;28;20030;-46
2022/05/30 02:53:42;;;;;;;1.02;0.80;;;;;;;;;;5009902;28;20065;-46
2022/05/30 02:56:10;;;;;;;1.10;0.60;;;;;;;;;;5010704;28;20045;-46
2022/05/30 02:58:36;;;;;;;3.50;1.48;;;;;;;;;;5010381;28;20053;-48
2022/05/30 03:01:03;;;;;;;1.27;0.80;;;;;;;;;;5010623;28;20048;-46
2022/05/30 03:03:29;;;;;;;0.90;0.60;;;;;;;;;;5010681;28;20033;-46
2022/05/30 03:05:55;;;;;;;0.60;0.50;;;;;;;;;;5009607;28;20286;-47
2022/05/30 03:08:21;;;;;;;0.85;0.65;;;;;;;;;;5010427;28;20030;-46
2022/05/30 03:10:47;;;;;;;0.90;0.65;;;;;;;;;;5009732;28;20025;-47
2022/05/30 03:13:13;;;;;;;3.22;0.80;;;;;;;;;;5010534;28;20030;-47
2022/05/30 03:15:39;;;;;;;1.27;0.80;;;;;;;;;;5009682;28;20033;-49
2022/05/30 03:18:06;;;;;;;1.20;0.60;;;;;;;;;;5010318;28;20467;-46
2022/05/30 03:20:32;;;;;;;1.50;0.60;;;;;;;;;;5010335;28;20022;-46
2022/05/30 03:22:58;;;;;;;0.70;0.50;;;;;;;;;;5013244;28;20026;-47
2022/05/30 03:25:25;;;;;;;1.38;0.90;;;;;;;;;;5011668;28;20021;-46
2022/05/30 03:27:55;;;;;;;2.33;1.30;;;;;;;;;;5013330;28;20056;-47
2022/05/30 03:30:22;;;;;;;1.38;0.80;;;;;;;;;;5013749;28;20026;-48
2022/05/30 03:32:48;;;;;;;1.58;0.85;;;;;;;;;;5013417;28;20026;-47
2022/05/30 03:35:15;;;;;;;1.73;0.60;;;;;;;;;;5013776;28;20349;-47
2022/05/30 03:37:41;;;;;;;1.38;0.82;;;;;;;;;;5008903;28;20014;-47
2022/05/30 03:40:09;;;;;;;0.90;0.70;;;;;;;;;;5013646;28;20056;-47
2022/05/30 03:42:35;;;;;;;1.48;0.88;;;;;;;;;;5013537;28;20524;-47
2022/05/30 03:45:01;;;;;;;1.70;0.73;;;;;;;;;;5012629;28;20058;-46
2022/05/30 03:47:27;;;;;;;1.48;0.70;;;;;;;;;;5014060;28;20423;-47
2022/05/30 03:49:59;;;;;;;1.30;0.57;;;;;;;;;;5012618;28;20451;-46
2022/05/30 03:52:25;;;;;;;1.20;0.70;;;;;;;;;;5013282;28;20069;-47
2022/05/30 03:54:52;;;;;;;2.15;0.70;;;;;;;;;;5012427;28;20018;-47
2022/05/30 03:57:18;;;;;;;0.70;0.55;;;;;;;;;;5013464;28;20028;-48
2022/05/30 03:59:44;;;;;;;0.65;0.65;;;;;;;;;;5012320;28;20539;-47
2022/05/30 04:02:10;;;;;;;0.63;0.63;;;;;;;;;;5013416;28;20026;-47
2022/05/30 04:04:36;;;;;;;0.93;0.60;;;;;;;;;;5013133;28;20387;-46
2022/05/30 04:07:03;;;;;;;0.73;0.70;;;;;;;;;;5012497;28;20022;-47
2022/05/30 04:09:29;;;;;;;0.80;0.65;;;;;;;;;;5013175;28;20030;-47
2022/05/30 04:11:55;;;;;;;1.02;0.70;;;;;;;;;;5012414;28;20141;-46
2022/05/30 04:14:21;;;;;;;1.98;0.60;;;;;;;;;;5012839;28;20076;-47
2022/05/30 04:16:47;;;;;;;1.73;0.68;;;;;;;;;;5013477;28;20063;-47
2022/05/30 04:19:13;;;;;;;1.25;0.98;;;;;;;;;;5014397;28;20513;-47
2022/05/30 04:21:39;;;;;;;0.85;0.65;;;;;;;;;;5013638;28;20030;-47
2022/05/30 04:24:05;;;;;;;1.50;0.77;;;;;;;;;;5014108;28;20030;-48
2022/05/30 04:26:31;;;;;;;1.27;0.60;;;;;;;;;;5014157;28;20383;-47
2022/05/30 04:28:57;;;;;;;1.60;0.80;;;;;;;;;;5013294;28;20022;-48
2022/05/30 04:31:23;;;;;;;1.00;0.50;;;;;;;;;;4994649;28;20506;-48
2022/05/30 04:33:50;;;;;;;1.20;0.70;;;;;;;;;;4992241;28;20054;-46
2022/05/30 04:36:16;;;;;;;1.88;0.80;;;;;;;;;;4994153;28;20026;-47
2022/05/30 04:38:42;;;;;;;1.13;0.65;;;;;;;;;;4993327;28;20022;-47
2022/05/30 04:41:08;;;;;;;1.27;0.70;;;;;;;;;;4994547;28;20049;-46
2022/05/30 04:43:34;;;;;;;2.03;0.60;;;;;;;;;;4996587;28;20368;-47
2022/05/30 04:46:04;;;;;;;0.60;0.60;;;;;;;;;;5012906;28;20042;-47
2022/05/30 04:48:30;;;;;;;0.73;0.70;;;;;;;;;;5013665;28;20054;-47
2022/05/30 04:50:56;;;;;;;2.67;0.90;;;;;;;;;;5012605;28;20064;-47
2022/05/30 04:53:22;;;;;;;1.30;0.70;;;;;;;;;;5013064;28;20105;-46
2022/05/30 04:55:48;;;;;;;0.85;0.60;;;;;;;;;;5012881;28;20030;-47
2022/05/30 04:58:14;;;;;;;2.67;0.93;;;;;;;;;;5013269;28;20057;-47
2022/05/30 05:00:40;;;;;;;1.20;0.60;;;;;;;;;;5012886;28;20068;-48
2022/05/30 05:03:06;;;;;;;1.33;0.80;;;;;;;;;;5013344;28;20375;-48
2022/05/30 05:05:32;;;;;;;4.05;1.50;;;;;;;;;;5012269;28;20025;-47
2022/05/30 05:08:06;;;;;;;8.95;0.90;;;;;;;;;;5011064;28;20029;-47
2022/05/30 05:10:32;;;;;;;2.35;0.90;;;;;;;;;;5010458;28;20032;-47
2022/05/30 05:12:58;;;;;;;1.77;1.00;;;;;;;;;;5011514;28;20671;-45
2022/05/30 05:15:24;;;;;;;2.58;1.17;;;;;;;;;;5011522;28;20384;-50
2022/05/30 05:17:50;;;;;;;1.77;1.20;;;;;;;;;;5010999;28;20038;-46
2022/05/30 05:20:16;;;;;;;3.58;1.63;;;;;;;;;;5011844;28;20022;-47
2022/05/30 05:22:42;;;;;;;7.38;1.95;;;;;;;;;;5011005;28;20038;-46
2022/05/30 05:25:09;;;;;;;2.90;1.60;;;;;;;;;;5011720;28;20017;-55
2022/05/30 05:27:35;;;;;;;3.35;1.98;;;;;;;;;;5011959;28;20025;-49
2022/05/30 05:30:01;;;;;;;3.13;2.05;;;;;;;;;;5010666;28;20088;-47
2022/05/30 05:32:27;;;;;;;4.15;1.63;;;;;;;;;;5011854;28;20021;-51
2022/05/30 05:34:53;;;;;;;2.83;1.60;;;;;;;;;;5011365;28;20105;-48
2022/05/30 05:37:19;;;;;;;2.78;1.40;;;;;;;;;;5011859;28;20026;-48
2022/05/30 05:39:47;;;;;;;3.10;1.60;;;;;;;;;;5011108;28;20455;-51
2022/05/30 05:42:14;;;;;;;3.17;1.38;;;;;;;;;;5011731;28;20049;-48
2022/05/30 05:44:40;;;;;;;3.75;1.73;;;;;;;;;;5010348;28;20447;-46
2022/05/30 05:47:06;;;;;;;2.00;1.67;;;;;;;;;;5011777;28;20093;-46
2022/05/30 05:49:33;;;;;;;3.28;1.88;;;;;;;;;;5011649;28;20112;-51
2022/05/30 05:51:59;;;;;;;1.77;1.10;;;;;;;;;;5010624;28;20069;-44
2022/05/30 05:54:26;;;;;;;2.20;1.20;;;;;;;;;;5003656;28;20049;-47
2022/05/30 05:56:52;;;;;;;3.55;1.05;;;;;;;;;;5010149;28;20080;-48
2022/05/30 05:59:18;;;;;;;1.90;1.08;;;;;;;;;;5011390;28;21287;-49
2022/05/30 06:01:44;;;;;;;2.65;1.17;;;;;;;;;;5009270;28;20100;-58
2022/05/30 06:04:11;;;;;;;2.83;0.93;;;;;;;;;;5011685;28;20122;-57
2022/05/30 06:06:37;;;;;;;1.85;1.10;;;;;;;;;;5006641;28;20026;-53
2022/05/30 06:09:04;;;;;;;1.38;0.95;;;;;;;;;;5010005;28;20030;-56
2022/05/30 06:11:31;;;;;;;3.13;1.20;;;;;;;;;;5010096;28;20029;-57
2022/05/30 06:13:57;;;;;;;5.32;1.70;;;;;;;;;;5011390;28;20033;-57
2022/05/30 06:16:27;;;;;;;3.55;1.17;;;;;;;;;;5011831;28;20037;-57
2022/05/30 06:18:54;;;;;;;2.80;1.05;;;;;;;;;;5010105;28;20438;-58
2022/05/30 06:21:21;;;;;;;3.22;1.33;;;;;;;;;;5010059;28;20101;-58
2022/05/30 06:23:48;;;;;;;2.15;0.98;;;;;;;;;;5001714;28;20069;-58
2022/05/30 06:26:14;;;;;;;2.78;1.40;;;;;;;;;;5003328;28;20095;-58
2022/05/30 06:28:41;;;;;;;3.85;1.00;;;;;;;;;;5008140;28;20057;-58
2022/05/30 06:31:08;;;;;;;2.72;1.17;;;;;;;;;;5008680;28;20022;-57
2022/05/30 06:33:35;;;;;;;1.73;1.00;;;;;;;;;;5010731;28;20022;-57
2022/05/30 06:36:02;;;;;;;3.05;1.30;;;;;;;;;;5009823;28;20022;-58
2022/05/30 06:38:28;;;;;;;3.97;1.30;;;;;;;;;;5010704;28;20097;-58
2022/05/30 06:40:54;;;;;;;1.63;1.00;;;;;;;;;;5009844;28;20092;-58
2022/05/30 06:43:20;;;;;;;2.20;1.27;;;;;;;;;;5010274;28;20022;-58
2022/05/30 06:45:47;;;;;;;1.50;1.17;;;;;;;;;;5009532;28;20136;-58
2022/05/30 06:48:14;;;;;;;4.88;1.35;;;;;;;;;;5009082;28;20032;-56
2022/05/30 06:50:40;;;;;;;4.80;1.60;;;;;;;;;;5007584;28;20028;-58
2022/05/30 06:53:06;;;;;;;2.40;1.17;;;;;;;;;;5009804;28;20105;-56
2022/05/30 06:55:32;;;;;;;3.63;1.35;;;;;;;;;;5006725;28;20532;-55
2022/05/30 06:58:14;;;;;;;2.78;1.38;;;;;;;;;;5008586;28;20126;-57
2022/05/30 07:00:40;;;;;;;2.50;1.20;;;;;;;;;;5011055;28;20033;-59
2022/05/30 07:03:06;;;;;;;4.43;1.58;;;;;;;;;;5013181;28;20276;-57
2022/05/30 07:05:32;;;;;;;3.45;1.45;;;;;;;;;;5013686;28;20472;-57
2022/05/30 07:07:58;;;;;;;3.13;1.55;;;;;;;;;;5013009;28;20057;-57
2022/05/30 07:10:25;;;;;;;7.60;1.38;;;;;;;;;;5010751;28;20030;-57
2022/05/30 07:12:51;;;;;;;1.60;1.15;;;;;;;;;;5012543;28;20683;-58
2022/05/30 07:15:18;;;;;;;1.77;1.00;;;;;;;;;;5005687;28;20030;-58
2022/05/30 07:17:44;;;;;;;1.48;0.98;;;;;;;;;;5007121;28;20080;-58
2022/05/30 07:20:10;;;;;;;2.00;1.17;;;;;;;;;;5008015;28;20041;-56
2022/05/30 07:22:36;;;;;;;1.48;0.95;;;;;;;;;;5008778;28;20073;-58
2022/05/30 07:25:02;;;;;;;2.38;1.23;;;;;;;;;;5010746;28;20056;-57
2022/05/30 07:27:29;;;;;;;2.38;1.23;;;;;;;;;;5010470;28;20378;-57
2022/05/30 07:29:55;;;;;;;4.53;1.67;;;;;;;;;;5012064;28;20046;-57
2022/05/30 07:32:21;;;;;;;1.85;1.23;;;;;;;;;;5013032;28;20048;-58
2022/05/30 07:34:47;;;;;;;3.03;1.00;;;;;;;;;;5012282;28;20033;-58
2022/05/30 07:37:13;;;;;;;2.75;1.02;;;;;;;;;;5009267;28;20105;-57
2022/05/30 07:39:39;;;;;;;1.90;0.98;;;;;;;;;;5007494;28;20026;-59
2022/05/30 07:42:05;;;;;;;3.17;1.42;;;;;;;;;;5010324;28;20022;-58
2022/05/30 07:44:32;;;;;;;1.75;1.15;;;;;;;;;;5011883;28;20588;-58
2022/05/30 07:46:59;;;;;;;3.15;1.40;;;;;;;;;;5004072;28;20917;-58
2022/05/30 07:49:25;;;;;;;2.05;1.20;;;;;;;;;;5012380;28;20541;-57
2022/05/30 07:51:51;;;;;;;2.90;1.02;;;;;;;;;;5011877;28;20044;-58
2022/05/30 07:54:17;;;;;;;2.05;0.90;;;;;;;;;;5012003;28;20093;-57
2022/05/30 07:56:43;;;;;;;2.38;0.95;;;;;;;;;;5011835;28;20037;-58
2022/05/30 07:59:09;;;;;;;2.85;1.10;;;;;;;;;;5012333;28;20033;-57
2022/05/30 08:01:35;;;;;;;1.90;1.00;;;;;;;;;;5012421;28;20029;-58
2022/05/30 08:04:02;;;;;;;2.50;1.00;;;;;;;;;;5011661;28;20018;-58
2022/05/30 08:06:28;;;;;;;1.60;0.90;;;;;;;;;;5012890;28;20048;-57
2022/05/30 08:08:55;;;;;;;1.27;0.93;;;;;;;;;;5010784;28;20464;-56
2022/05/30 08:11:21;;;;;;;1.73;1.00;;;;;;;;;;5010503;28;20038;-56
2022/05/30 08:13:48;;;;;;;1.50;0.90;;;;;;;;;;5004789;28;20031;-56
2022/05/30 08:16:16;;;;;;;1.67;0.98;;;;;;;;;;5006336;28;20026;-55
2022/05/30 08:18:42;;;;;;;2.13;1.30;;;;;;;;;;5004386;28;20033;-58
2022/05/30 08:21:08;;;;;;;2.28;1.42;;;;;;;;;;5005960;28;20027;-56
2022/05/30 08:23:35;;;;;;;3.03;1.20;;;;;;;;;;5005800;28;20403;-57
2022/05/30 08:26:01;;;;;;;1.25;0.80;;;;;;;;;;5003956;28;20034;-55
2022/05/30 08:28:27;;;;;;;1.80;1.20;;;;;;;;;;5008880;28;20033;-57
2022/05/30 08:30:53;;;;;;;1.42;0.90;;;;;;;;;;5011402;28;20073;-56
2022/05/30 08:33:21;;;;;;;3.13;1.05;;;;;;;;;;5012562;28;20029;-56
2022/05/30 08:35:47;;;;;;;3.40;1.45;;;;;;;;;;5011532;28;20029;-57
2022/05/30 08:38:14;;;;;;;1.35;0.90;;;;;;;;;;5012100;28;20048;-56
2022/05/30 08:43:37;;;;;;;1.83;0.88;;;;;;;;;;5014330;28;20041;-55
2022/05/30 08:46:23;;;;;;;1.90;0.90;;;;;;;;;;5006515;28;20054;-55
2022/05/30 08:48:55;;;;;;;2.47;1.10;;;;;;;;;;5011784;28;20100;-54
2022/05/30 08:51:28;;;;;;;2.60;1.10;;;;;;;;;;5012973;28;20120;-56
2022/05/30 08:54:12;;;;;;;3.25;1.60;;;;;;;;;;5005052;28;20472;-58
2022/05/30 08:56:40;;;;;;;2.15;0.93;;;;;;;;;;5012542;28;20037;-58
2022/05/30 08:59:24;;;;;;;5.10;1.10;;;;;;;;;;5012349;28;20036;-57
2022/05/30 09:01:53;;;;;;;3.20;0.80;;;;;;;;;;5004366;28;20051;-58
2022/05/30 09:04:23;;;;;;;6.03;1.25;;;;;;;;;;5012478;28;20037;-58
2022/05/30 09:07:01;;;;;;;1.20;0.90;;;;;;;;;;5011576;28;20037;-58
2022/05/30 09:09:29;;;;;;;1.52;0.70;;;;;;;;;;5012332;28;20025;-56
2022/05/30 09:12:09;;;;;;;1.77;1.33;;;;;;;;;;5010565;28;20030;-55
2022/05/30 09:14:41;;;;;;;5.60;1.20;;;;;;;;;;5011845;28;20352;-55
2022/05/30 09:17:14;;;;;;;1.63;0.70;;;;;;;;;;5012575;28;20030;-57
2022/05/30 09:19:40;;;;;;;1.40;0.60;;;;;;;;;;5011904;28;20033;-58
2022/05/30 09:22:07;;;;;;;2.47;1.25;;;;;;;;;;5011788;28;20080;-56
2022/05/30 09:24:35;;;;;;;1.75;0.88;;;;;;;;;;5011622;28;20030;-57
2022/05/30 09:27:02;;;;;;;1.25;0.68;;;;;;;;;;5011449;28;20608;-55
2022/05/30 09:29:34;;;;;;;1.75;0.80;;;;;;;;;;5011865;28;20109;-56
2022/05/30 09:32:30;;;;;;;1.65;0.90;;;;;;;;;;5008877;28;20034;-58
2022/05/30 09:34:56;;;;;;;1.83;0.85;;;;;;;;;;4998285;28;20042;-57
2022/05/30 09:37:25;;;;;;;1.63;0.80;;;;;;;;;;5011837;28;20072;-57
2022/05/30 09:39:51;;;;;;;3.20;0.85;;;;;;;;;;5010077;28;20026;-58
2022/05/30 09:42:32;;;;;;;1.95;1.10;;;;;;;;;;5011579;28;20029;-58
2022/05/30 09:45:14;;;;;;;2.03;0.77;;;;;;;;;;5010749;28;20414;-57
2022/05/30 09:47:59;;;;;;;2.40;0.80;;;;;;;;;;5011583;28;20065;-59
2022/05/30 09:50:26;;;;;;;1.83;0.85;;;;;;;;;;5011417;28;20069;-58
2022/05/30 09:52:52;;;;;;;3.42;0.80;;;;;;;;;;5010768;28;20042;-56
2022/05/30 09:55:31;;;;;;;0.93;0.68;;;;;;;;;;5010025;28;20105;-56
2022/05/30 09:57:58;;;;;;;1.10;0.68;;;;;;;;;;5010523;28;20467;-57
2022/05/30 10:00:32;;;;;;;3.25;0.95;;;;;;;;;;5011378;28;20459;-57
2022/05/30 10:02:59;;;;;;;1.40;0.70;;;;;;;;;;5009410;28;20030;-58
2022/05/30 10:05:30;;;;;;;1.40;0.75;;;;;;;;;;5010535;28;20096;-57
2022/05/30 10:07:58;;;;;;;1.90;0.80;;;;;;;;;;5010627;28;20057;-56
2022/05/30 10:10:32;;;;;;;3.60;0.80;;;;;;;;;;5010640;28;20083;-58
2022/05/30 10:13:03;;;;;;;2.17;0.80;;;;;;;;;;5010631;28;20030;-56
2022/05/30 10:15:33;;;;;;;2.20;0.97;;;;;;;;;;5010502;28;20467;-58
2022/05/30 10:18:19;;;;;;;2.60;0.60;;;;;;;;;;5007143;28;20034;-59
2022/05/30 10:20:50;;;;;;;4.50;0.82;;;;;;;;;;5005937;28;20067;-59
2022/05/30 10:29:47;;;;;;;2.33;0.80;;;;;;;;;;5011036;28;20139;-58
2022/05/30 10:32:25;;;;;;;2.13;0.80;;;;;;;;;;5013711;28;20375;-59
2022/05/30 10:34:53;;;;;;;5.93;0.77;;;;;;;;;;5014564;28;20033;-58
2022/05/30 10:37:22;;;;;;;1.85;0.82;;;;;;;;;;5014849;28;20022;-58
2022/05/30 10:39:53;;;;;;;3.58;1.35;;;;;;;;;;5014293;28;20361;-58
2022/05/30 10:42:24;;;;;;;2.00;1.00;;;;;;;;;;5014881;28;20025;-57
2022/05/30 10:44:54;;;;;;;2.42;0.88;;;;;;;;;;5007393;28;20029;-57
2022/05/30 10:47:24;;;;;;;2.35;1.10;;;;;;;;;;5015022;28;20041;-55
2022/05/30 10:49:52;;;;;;;1.42;1.08;;;;;;;;;;5013765;28;20124;-58
2022/05/30 10:52:37;;;;;;;1.73;0.88;;;;;;;;;;5015108;28;20026;-57
2022/05/30 10:55:11;;;;;;;1.65;1.05;;;;;;;;;;5014026;28;20026;-56
2022/05/30 10:57:40;;;;;;;1.27;0.70;;;;;;;;;;5010815;28;20395;-57
2022/05/30 11:00:19;;;;;;;2.80;1.05;;;;;;;;;;5013978;28;20498;-57
2022/05/30 11:03:04;;;;;;;1.60;0.60;;;;;;;;;;5013600;28;20041;-57
2022/05/30 11:05:30;;;;;;;2.38;0.88;;;;;;;;;;5014999;28;20038;-55
2022/05/30 11:08:05;;;;;;;2.17;1.00;;;;;;;;;;5013882;28;20087;-57
2022/05/30 11:10:38;;;;;;;1.63;0.60;;;;;;;;;;5014527;28;20040;-55
2022/05/30 11:13:23;;;;;;;3.30;0.70;;;;;;;;;;5013906;28;20040;-56
2022/05/30 11:15:53;;;;;;;2.35;0.63;;;;;;;;;;5013811;28;20037;-58
2022/05/30 11:18:46;;;;;;;3.55;0.70;;;;;;;;;;5014699;28;20030;-58
2022/05/30 11:21:24;;;;;;;4.25;0.75;;;;;;;;;;5013979;28;20487;-58
2022/05/30 11:23:50;;;;;;;2.53;0.60;;;;;;;;;;5013171;28;20041;-58
2022/05/30 11:26:27;;;;;;;3.15;0.68;;;;;;;;;;5014573;28;20113;-58
2022/05/30 11:28:53;;;;;;;1.70;0.80;;;;;;;;;;5008624;28;20026;-57
2022/05/30 11:31:22;;;;;;;1.45;0.75;;;;;;;;;;5013748;28;20057;-57
2022/05/30 11:34:03;;;;;;;1.02;0.65;;;;;;;;;;5013863;28;20021;-57
2022/05/30 11:36:32;;;;;;;0.82;0.50;;;;;;;;;;5014019;28;20105;-57
2022/05/30 11:39:07;;;;;;;0.70;0.52;;;;;;;;;;5013757;28;20452;-57
2022/05/30 11:41:44;;;;;;;1.20;0.60;;;;;;;;;;5013566;28;20471;-57
2022/05/30 11:44:33;;;;;;;1.35;0.68;;;;;;;;;;5006709;28;20105;-57
2022/05/30 11:46:59;;;;;;;2.33;0.65;;;;;;;;;;5004379;28;20184;-57
2022/05/30 11:49:43;;;;;;;1.15;0.40;;;;;;;;;;5013794;28;20065;-57
2022/05/30 11:52:12;;;;;;;2.30;1.00;;;;;;;;;;5013260;28;20045;-58
2022/05/30 11:54:59;;;;;;;2.92;0.85;;;;;;;;;;5013365;28;20108;-56
2022/05/30 11:57:25;;;;;;;2.15;0.63;;;;;;;;;;5013676;28;20026;-57
2022/05/30 11:59:52;;;;;;;0.95;0.45;;;;;;;;;;5012991;28;20026;-57
2022/05/30 12:02:20;;;;;;;0.95;0.60;;;;;;;;;;5013733;28;20033;-56
2022/05/30 12:05:01;;;;;;;1.67;0.63;;;;;;;;;;5012917;28;20468;-57
2022/05/30 12:07:44;;;;;;;1.20;0.65;;;;;;;;;;5012492;28;20022;-56
2022/05/30 12:10:26;;;;;;;0.50;0.50;;;;;;;;;;5006595;28;20080;-54
2022/05/30 12:12:55;;;;;;;1.13;0.63;;;;;;;;;;5012627;28;20149;-53
2022/05/30 12:15:21;;;;;;;1.23;0.80;;;;;;;;;;5013982;28;20104;-54
2022/05/30 12:24:09;;;;;;;0.70;0.50;;;;;;;;;;5009356;28;20102;-55
2022/05/30 12:26:56;;;;;;;1.15;0.70;;;;;;;;;;5012998;28;20033;-57
2022/05/30 12:29:37;;;;;;;1.25;0.70;;;;;;;;;;5013522;28;20119;-55
2022/05/30 12:32:16;;;;;;;1.20;0.65;;;;;;;;;;5012160;28;20030;-56
2022/05/30 12:37:51;;;;;;;1.70;0.60;;;;;;;;;;5007825;28;20030;-58
2022/05/30 12:40:26;;;;;;;1.00;0.60;;;;;;;;;;5013167;28;20121;-58
2022/05/30 12:43:05;;;;;;;1.58;0.63;;;;;;;;;;5012325;28;20036;-59
2022/05/30 12:45:37;;;;;;;0.60;0.40;;;;;;;;;;5012277;28;20046;-59
2022/05/30 12:48:30;;;;;;;1.33;0.50;;;;;;;;;;5011778;28;20475;-56
2022/05/30 12:50:55;;;;;;;;;;;;;;;;;;5009357;28;20104;-55
2022/05/30 12:53:44;;;;;;;1.15;0.70;;;;;;;;;;5005479;28;19909;-55
2022/05/30 12:56:10;;;;;;;2.15;0.70;;;;;;;;;;5009969;28;20044;-57
2022/05/30 12:58:37;;;;;;;2.13;1.17;;;;;;;;;;5013646;28;20423;-58
2022/05/30 13:01:22;;;;;;;1.17;0.60;;;;;;;;;;5011457;28;20553;-58
2022/05/30 13:04:12;;;;;;;2.58;0.77;;;;;;;;;;5011894;28;20030;-59
2022/05/30 13:06:56;;;;;;;0.95;0.63;;;;;;;;;;4998079;28;20041;-58
2022/05/30 13:09:33;;;;;;;1.35;0.68;;;;;;;;;;5012085;28;20038;-57
2022/05/30 13:12:11;;;;;;;1.88;0.80;;;;;;;;;;5008907;28;20022;-59
2022/05/30 13:14:40;;;;;;;2.85;1.30;;;;;;;;;;5006173;28;20029;-58
2022/05/30 13:17:09;;;;;;;2.75;0.70;;;;;;;;;;5011461;28;20034;-58
2022/05/30 13:19:40;;;;;;;1.60;0.57;;;;;;;;;;5011967;28;20026;-58
2022/05/30 13:22:06;;;;;;;1.38;0.75;;;;;;;;;;5011778;28;20058;-58
2022/05/30 13:24:32;;;;;;;2.13;0.60;;;;;;;;;;5011371;28;20025;-58
2022/05/30 13:26:59;;;;;;;1.75;0.65;;;;;;;;;;5011524;28;20033;-58
2022/05/30 13:29:33;;;;;;;0.80;0.75;;;;;;;;;;5009048;28;20124;-58
2022/05/30 13:31:59;;;;;;;2.42;0.77;;;;;;;;;;5011366;28;20463;-58
2022/05/30 13:34:28;;;;;;;1.23;0.70;;;;;;;;;;5012427;28;20030;-58
2022/05/30 13:36:54;;;;;;;2.17;0.70;;;;;;;;;;5010763;28;20029;-59
2022/05/30 13:39:20;;;;;;;0.98;0.52;;;;;;;;;;5011889;28;20482;-58
2022/05/30 13:41:46;;;;;;;1.73;0.73;;;;;;;;;;5005542;28;20030;-58
2022/05/30 13:44:15;;;;;;;1.27;0.60;;;;;;;;;;5011440;28;20026;-58
2022/05/30 13:46:46;;;;;;;0.73;0.50;;;;;;;;;;5010688;28;20049;-58
2022/05/30 13:49:12;;;;;;;1.42;0.65;;;;;;;;;;5010395;28;20038;-59
2022/05/30 13:51:39;;;;;;;6.60;1.02;;;;;;;;;;5011370;28;20052;-57
2022/05/30 13:54:09;;;;;;;4.50;1.05;;;;;;;;;;5009832;28;20073;-58
2022/05/30 13:56:39;;;;;;;2.05;0.75;;;;;;;;;;5011285;28;20424;-58
2022/05/30 13:59:21;;;;;;;6.50;1.10;;;;;;;;;;5010658;28;20030;-58
2022/05/30 14:01:47;;;;;;;4.05;0.85;;;;;;;;;;5011071;28;20092;-58
2022/05/30 14:04:22;;;;;;;3.88;0.77;;;;;;;;;;5010161;28;20055;-55
2022/05/30 14:06:48;;;;;;;2.75;1.02;;;;;;;;;;5006953;28;20049;-58
2022/05/30 14:09:15;;;;;;;2.88;0.80;;;;;;;;;;5010532;28;20026;-55
2022/05/30 14:11:43;;;;;;;1.50;0.65;;;;;;;;;;5011818;28;20030;-56
2022/05/30 14:14:10;;;;;;;3.00;1.38;;;;;;;;;;5009816;28;20025;-56
2022/05/30 14:16:43;;;;;;;2.90;1.10;;;;;;;;;;5011540;28;20105;-55
2022/05/30 14:19:24;;;;;;;4.05;0.75;;;;;;;;;;5010868;28;20833;-57
2022/05/30 14:21:56;;;;;;;9.02;0.80;;;;;;;;;;5010559;28;20033;-57
2022/05/30 14:24:26;;;;;;;4.13;0.70;;;;;;;;;;5011663;28;20025;-54
2022/05/30 14:26:53;;;;;;;5.22;0.77;;;;;;;;;;5010470;28;20448;-57
2022/05/30 14:29:27;;;;;;;1.20;0.50;;;;;;;;;;5011491;28;20411;-57
2022/05/30 14:32:08;;;;;;;3.22;0.57;;;;;;;;;;5010435;28;20459;-58
2022/05/30 14:34:36;;;;;;;4.18;1.90;;;;;;;;;;5007882;28;20361;-57
2022/05/30 14:37:02;;;;;;;1.52;0.70;;;;;;;;;;5010420;28;20022;-57
2022/05/30 14:39:31;;;;;;;1.88;0.60;;;;;;;;;;5011252;28;20038;-57
2022/05/30 14:42:01;;;;;;;1.95;0.60;;;;;;;;;;5010660;28;20014;-58
2022/05/30 14:44:38;;;;;;;1.17;0.70;;;;;;;;;;5011029;28;20034;-57
2022/05/30 14:47:07;;;;;;;1.50;0.80;;;;;;;;;;4984880;28;20054;-57
2022/05/30 14:49:34;;;;;;;2.08;0.70;;;;;;;;;;4991681;28;20069;-56
2022/05/30 14:52:02;;;;;;;1.77;0.70;;;;;;;;;;4990401;28;20057;-55
2022/05/30 14:54:34;;;;;;;0.93;0.68;;;;;;;;;;4991264;28;20049;-57
2022/05/30 14:57:00;;;;;;;;;;;;;;;;;;4990985;28;20042;-57
2022/05/30 14:59:37;;;;;;;0.52;0.40;;;;;;;;;;4991312;28;19910;-57
2022/05/30 15:02:04;;;;;;;0.98;0.50;;;;;;;;;;4983940;28;20030;-55
2022/05/30 15:04:31;;;;;;;0.90;0.82;;;;;;;;;;4991360;28;20542;-57
2022/05/30 15:07:12;;;;;;;1.80;0.60;;;;;;;;;;4990051;28;20432;-56
2022/05/30 15:09:42;;;;;;;1.45;0.77;;;;;;;;;;4985226;28;20065;-56
2022/05/30 15:12:09;;;;;;;0.90;0.60;;;;;;;;;;4984302;28;20023;-57
2022/05/30 15:14:35;;;;;;;0.90;0.60;;;;;;;;;;4983570;28;20037;-57
2022/05/30 15:17:01;;;;;;;1.10;0.65;;;;;;;;;;4991592;28;20026;-56
2022/05/30 15:19:27;;;;;;;1.85;0.90;;;;;;;;;;4995161;28;20036;-57
2022/05/30 15:21:56;;;;;;;1.25;0.90;;;;;;;;;;4994117;28;20508;-57